createdAt,value
2019-06-10T00:02:13.277Z,11.82
2019-06-10T00:04:41.721Z,11.74
2019-06-10T00:07:11.629Z,11.70
2019-06-10T00:09:40.756Z,11.67
2019-06-10T00:12:12.380Z,11.66
2019-06-10T00:14:41.675Z,11.62
2019-06-10T00:17:10.997Z,11.56
2019-06-10T00:19:40.960Z,11.55
2019-06-10T00:22:11.612Z,11.53
2019-06-10T00:24:40.925Z,11.75
2019-06-10T00:27:11.472Z,11.87
2019-06-10T00:29:40.873Z,11.69
2019-06-10T00:32:12.614Z,11.53
2019-06-10T00:34:38.952Z,11.57
2019-06-10T00:37:09.238Z,11.44
2019-06-10T00:39:36.958Z,11.41
2019-06-10T00:42:07.971Z,11.46
2019-06-10T00:44:36.083Z,11.44
2019-06-10T00:47:06.985Z,11.44
2019-06-10T00:49:35.395Z,11.45
2019-06-10T00:52:04.648Z,11.40
2019-06-10T00:54:34.068Z,11.39
2019-06-10T00:57:02.879Z,11.37
2019-06-10T00:59:32.133Z,11.38
2019-06-10T01:02:01.724Z,11.37
2019-06-10T01:04:31.861Z,11.36
2019-06-10T01:07:00.790Z,11.39
2019-06-10T01:09:31.094Z,11.36
2019-06-10T01:12:01.063Z,11.34
2019-06-10T01:14:28.744Z,11.37
2019-06-10T01:16:57.367Z,11.35
2019-06-10T01:19:26.032Z,11.33
2019-06-10T01:21:54.551Z,11.30
2019-06-10T01:24:22.726Z,11.27
2019-06-10T01:26:50.669Z,11.27
2019-06-10T01:29:20.992Z,11.27
2019-06-10T01:31:51.055Z,11.24
2019-06-10T01:34:18.771Z,11.22
2019-06-10T01:36:46.956Z,11.22
2019-06-10T01:39:16.818Z,11.27
2019-06-10T01:41:45.705Z,11.29
2019-06-10T01:44:16.073Z,11.30
2019-06-10T01:46:44.817Z,11.32
2019-06-10T01:49:14.748Z,11.37
2019-06-10T01:51:43.234Z,11.38
2019-06-10T01:54:12.427Z,11.39
2019-06-10T01:56:41.097Z,11.36
2019-06-10T01:59:12.182Z,11.40
2019-06-10T02:01:48.872Z,11.43
2019-06-10T02:04:18.247Z,11.45
2019-06-10T02:06:46.325Z,11.51
2019-06-10T02:09:15.544Z,11.54
2019-06-10T02:11:44.424Z,11.57
2019-06-10T02:14:16.152Z,11.75
2019-06-10T02:16:42.846Z,11.81
2019-06-10T02:19:13.937Z,12.08
2019-06-10T02:21:41.751Z,11.94
2019-06-10T02:24:11.639Z,11.69
2019-06-10T02:26:41.062Z,11.51
2019-06-10T02:29:11.196Z,11.47
2019-06-10T02:31:42.839Z,11.45
2019-06-10T02:34:13.280Z,11.44
2019-06-10T02:36:44.253Z,11.41
2019-06-10T02:41:38.383Z,11.83
2019-06-10T02:44:07.630Z,11.59
2019-06-10T02:46:36.560Z,11.51
2019-06-10T02:49:20.699Z,11.50
2019-06-10T02:51:36.098Z,11.50
2019-06-10T02:54:05.047Z,11.60
2019-06-10T02:56:36.283Z,11.70
2019-06-10T02:59:03.566Z,11.74
2019-06-10T03:01:37.044Z,11.66
2019-06-10T03:04:04.628Z,11.56
2019-06-10T03:06:39.496Z,11.57
2019-06-10T03:09:03.996Z,11.56
2019-06-10T03:11:36.918Z,11.56
2019-06-10T03:14:02.722Z,11.56
2019-06-10T03:16:42.433Z,11.64
2019-06-10T03:19:10.618Z,11.66
2019-06-10T03:21:38.877Z,11.65
2019-06-10T03:24:07.128Z,11.68
2019-06-10T03:26:35.844Z,11.66
2019-06-10T03:29:03.735Z,11.66
2019-06-10T03:31:40.385Z,11.68
2019-06-10T03:34:04.921Z,11.65
2019-06-10T03:36:32.335Z,11.64
2019-06-10T03:39:02.549Z,11.76
2019-06-10T03:41:32.307Z,11.83
2019-06-10T03:44:02.554Z,11.81
2019-06-10T03:46:32.857Z,11.84
2019-06-10T03:49:03.216Z,11.84
2019-06-10T03:51:33.319Z,11.83
2019-06-10T03:54:02.514Z,11.83
2019-06-10T03:56:32.289Z,11.80
2019-06-10T03:59:02.865Z,11.73
2019-06-10T04:01:33.165Z,11.69
2019-06-10T04:04:02.348Z,11.64
2019-06-10T04:06:33.711Z,11.61
2019-06-10T04:09:02.773Z,11.68
2019-06-10T04:11:35.244Z,11.74
2019-06-10T04:14:02.478Z,11.73
2019-06-10T04:16:32.783Z,11.73
2019-06-10T04:19:02.575Z,11.74
2019-06-10T04:21:32.627Z,11.74
2019-06-10T04:24:02.236Z,11.76
2019-06-10T04:26:32.130Z,11.84
2019-06-10T04:29:02.441Z,12.01
2019-06-10T04:31:33.053Z,11.91
2019-06-10T04:34:03.162Z,11.88
2019-06-10T04:36:33.083Z,11.87
2019-06-10T04:39:03.277Z,11.88
2019-06-10T04:41:32.455Z,11.89
2019-06-10T04:44:02.626Z,11.91
2019-06-10T04:46:32.564Z,12.02
2019-06-10T04:49:02.788Z,12.04
2019-06-10T04:51:32.925Z,12.02
2019-06-10T04:54:03.012Z,12.05
2019-06-10T04:56:33.415Z,12.02
2019-06-10T04:59:03.110Z,12.13
2019-06-10T05:01:33.621Z,12.09
2019-06-10T05:04:03.232Z,12.07
2019-06-10T05:06:32.799Z,12.06
2019-06-10T05:09:01.283Z,12.06
2019-06-10T05:11:30.748Z,12.05
2019-06-10T05:13:59.368Z,12.10
2019-06-10T05:16:31.891Z,12.19
2019-06-10T05:18:58.035Z,12.16
2019-06-10T05:21:29.373Z,12.17
2019-06-10T05:23:56.434Z,12.18
2019-06-10T05:26:26.055Z,12.18
2019-06-10T05:28:55.035Z,12.21
2019-06-10T05:31:26.687Z,12.47
2019-06-10T05:33:53.162Z,12.63
2019-06-10T05:36:25.692Z,12.66
2019-06-10T05:38:52.609Z,12.61
2019-06-10T05:41:24.102Z,12.55
2019-06-10T05:43:52.251Z,12.51
2019-06-10T05:46:23.275Z,12.50
2019-06-10T05:48:52.637Z,12.43
2019-06-10T05:51:23.173Z,12.48
2019-06-10T05:53:52.778Z,12.45
2019-06-10T05:56:23.347Z,12.42
2019-06-10T05:58:52.506Z,12.41
2019-06-10T06:01:22.866Z,12.49
2019-06-10T06:03:52.903Z,12.51
2019-06-10T06:06:22.962Z,12.61
2019-06-10T06:08:53.385Z,12.61
2019-06-10T06:11:23.106Z,12.84
2019-06-10T06:13:52.370Z,12.82
2019-06-10T06:16:22.821Z,12.87
2019-06-10T06:18:52.667Z,12.97
2019-06-10T06:21:29.157Z,13.01
2019-06-10T06:23:52.869Z,13.07
2019-06-10T06:26:23.642Z,13.06
2019-06-10T06:28:53.499Z,13.20
2019-06-10T06:31:23.215Z,13.20
2019-06-10T06:33:52.644Z,13.26
2019-06-10T06:36:22.679Z,13.26
2019-06-10T06:38:53.086Z,13.24
2019-06-10T06:41:22.623Z,13.37
2019-06-10T06:43:53.178Z,13.33
2019-06-10T06:46:23.364Z,13.38
2019-06-10T06:48:53.200Z,13.51
2019-06-10T06:51:36.340Z,13.46
2019-06-10T06:53:55.898Z,13.32
2019-06-10T06:56:23.104Z,13.32
2019-06-10T06:58:52.463Z,13.28
2019-06-10T07:01:25.160Z,13.37
2019-06-10T07:03:53.606Z,13.35
2019-06-10T07:06:23.136Z,13.41
2019-06-10T07:09:03.753Z,13.42
2019-06-10T07:11:22.609Z,13.42
2019-06-10T07:13:53.398Z,13.36
2019-06-10T07:16:23.031Z,13.27
2019-06-10T07:18:53.668Z,13.41
2019-06-10T07:21:22.804Z,13.51
2019-06-10T07:23:52.913Z,13.43
2019-06-10T07:26:22.241Z,13.48
2019-06-10T07:28:53.426Z,13.68
2019-06-10T07:31:24.833Z,13.60
2019-06-10T07:33:52.591Z,13.56
2019-06-10T07:36:23.602Z,13.50
2019-06-10T07:38:54.053Z,13.64
2019-06-10T07:41:23.219Z,13.55
2019-06-10T07:43:53.011Z,13.68
2019-06-10T07:46:23.021Z,13.56
2019-06-10T07:48:56.184Z,13.50
2019-06-10T07:51:22.720Z,13.52
2019-06-10T07:53:52.529Z,13.56
2019-06-10T07:56:23.380Z,13.59
2019-06-10T07:58:52.767Z,13.67
2019-06-10T08:01:22.973Z,13.80
2019-06-10T08:03:52.665Z,13.92
2019-06-10T08:06:22.991Z,14.02
2019-06-10T08:08:53.171Z,14.18
2019-06-10T08:11:22.915Z,14.31
2019-06-10T08:13:53.915Z,14.32
2019-06-10T08:16:23.521Z,14.42
2019-06-10T08:19:20.498Z,14.30
2019-06-10T08:21:22.882Z,14.26
2019-06-10T08:23:54.045Z,14.20
2019-06-10T08:26:23.158Z,14.32
2019-06-10T08:28:53.078Z,14.33
2019-06-10T08:31:22.640Z,14.46
2019-06-10T08:33:53.427Z,14.56
2019-06-10T08:36:22.515Z,14.79
2019-06-10T08:38:52.645Z,14.84
2019-06-10T08:41:23.883Z,15.14
2019-06-10T08:43:52.822Z,15.11
2019-06-10T08:46:22.653Z,15.33
2019-06-10T08:48:52.551Z,15.29
2019-06-10T08:51:23.605Z,15.45
2019-06-10T08:53:53.252Z,15.47
2019-06-10T08:56:22.435Z,15.56
2019-06-10T08:58:53.786Z,15.72
2019-06-10T09:01:22.300Z,15.68
2019-06-10T09:03:53.411Z,15.78
2019-06-10T09:06:23.101Z,15.87
2019-06-10T09:08:54.280Z,15.95
2019-06-10T09:11:23.690Z,15.86
2019-06-10T09:13:53.231Z,15.81
2019-06-10T09:16:22.844Z,15.83
2019-06-10T09:18:54.966Z,15.98
2019-06-10T09:21:22.267Z,16.22
2019-06-10T09:23:58.583Z,16.47
2019-06-10T09:26:22.985Z,16.61
2019-06-10T09:28:55.748Z,16.82
2019-06-10T09:31:23.866Z,17.17
2019-06-10T09:33:56.236Z,17.56
2019-06-10T09:36:23.565Z,17.62
2019-06-10T09:38:55.042Z,17.67
2019-06-10T09:41:31.001Z,17.69
2019-06-10T09:43:56.722Z,17.85
2019-06-10T09:46:23.410Z,17.91
2019-06-10T09:48:55.753Z,18.03
2019-06-10T09:51:23.150Z,18.25
2019-06-10T09:54:02.124Z,18.41
2019-06-10T09:56:23.022Z,18.43
2019-06-10T09:58:55.079Z,18.65
2019-06-10T10:01:24.497Z,18.72
2019-06-10T10:03:59.260Z,18.89
2019-06-10T10:06:23.790Z,19.10
2019-06-10T10:08:56.273Z,19.42
2019-06-10T10:11:24.192Z,19.78
2019-06-10T10:13:52.715Z,19.96
2019-06-10T10:16:22.550Z,20.26
2019-06-10T10:18:57.535Z,20.48
2019-06-10T10:21:22.264Z,20.51
2019-06-10T10:24:04.320Z,20.34
2019-06-10T10:26:21.489Z,20.16
2019-06-10T10:28:50.770Z,20.01
2019-06-10T10:31:19.650Z,19.93
2019-06-10T10:33:48.521Z,19.84
2019-06-10T10:36:16.541Z,19.85
2019-06-10T10:38:44.748Z,19.76
2019-06-10T10:41:13.523Z,19.91
2019-06-10T10:43:43.726Z,20.14
2019-06-10T10:46:13.850Z,20.30
2019-06-10T10:48:43.025Z,20.28
2019-06-10T10:51:13.045Z,20.23
2019-06-10T10:53:46.808Z,20.13
2019-06-10T10:56:12.835Z,20.03
2019-06-10T10:58:43.625Z,20.10
2019-06-10T11:01:15.110Z,19.92
2019-06-10T11:03:44.091Z,19.87
2019-06-10T11:06:12.832Z,19.69
2019-06-10T11:08:44.194Z,19.52
2019-06-10T11:11:13.620Z,19.38
2019-06-10T11:13:43.393Z,19.36
2019-06-10T11:16:11.701Z,19.20
2019-06-10T11:18:42.238Z,19.03
2019-06-10T11:21:13.033Z,18.82
2019-06-10T11:23:43.644Z,18.72
2019-06-10T11:26:12.428Z,18.72
2019-06-10T11:28:42.894Z,18.73
2019-06-10T11:31:13.881Z,18.73
2019-06-10T11:33:43.539Z,18.87
2019-06-10T11:36:13.446Z,18.74
2019-06-10T11:38:42.096Z,18.65
2019-06-10T11:41:13.571Z,18.52
2019-06-10T11:43:43.030Z,18.41
2019-06-10T11:46:13.698Z,18.11
2019-06-10T11:48:43.473Z,18.11
2019-06-10T11:51:13.059Z,17.85
2019-06-10T11:53:44.004Z,17.63
2019-06-10T11:56:13.076Z,17.44
2019-06-10T11:58:42.635Z,17.28
2019-06-10T12:01:12.947Z,17.07
2019-06-10T12:03:43.147Z,16.80
2019-06-10T12:06:13.519Z,16.52
2019-06-10T12:08:43.529Z,16.29
2019-06-10T12:11:12.671Z,16.11
2019-06-10T12:13:42.904Z,15.98
2019-06-10T12:17:08.532Z,15.88
2019-06-10T12:18:42.596Z,15.83
2019-06-10T12:21:13.027Z,15.80
2019-06-10T12:23:43.623Z,16.00
2019-06-10T12:26:11.126Z,15.89
2019-06-10T12:28:39.455Z,15.83
2019-06-10T12:31:07.738Z,15.85
2019-06-10T12:33:36.031Z,15.82
2019-06-10T12:36:07.140Z,15.85
2019-06-10T12:38:34.737Z,16.00
2019-06-10T12:41:07.979Z,16.03
2019-06-10T12:43:33.556Z,16.09
2019-06-10T12:46:02.008Z,16.17
2019-06-10T12:48:34.031Z,16.22
2019-06-10T12:51:05.798Z,16.24
2019-06-10T12:53:32.618Z,16.23
2019-06-10T12:56:07.292Z,16.17
2019-06-10T12:58:33.372Z,16.23
2019-06-10T13:01:05.839Z,16.15
2019-06-10T13:03:32.957Z,16.05
2019-06-10T13:06:07.159Z,16.06
2019-06-10T13:08:34.796Z,16.07
2019-06-10T13:11:04.129Z,15.96
2019-06-10T13:13:33.055Z,15.93
2019-06-10T13:16:04.218Z,15.79
2019-06-10T13:18:31.879Z,15.72
2019-06-10T13:21:06.282Z,15.69
2019-06-10T13:23:32.597Z,15.56
2019-06-10T13:26:04.271Z,15.43
2019-06-10T13:28:32.559Z,15.42
2019-06-10T13:31:04.348Z,15.42
2019-06-10T13:33:33.170Z,15.52
2019-06-10T13:36:04.823Z,15.46
2019-06-10T13:38:33.158Z,15.51
2019-06-10T13:41:02.311Z,15.34
2019-06-10T13:43:33.781Z,15.35
2019-06-10T13:46:03.165Z,15.26
2019-06-10T13:48:32.127Z,15.20
2019-06-10T13:51:03.814Z,15.15
2019-06-10T13:53:31.182Z,15.19
2019-06-10T13:56:19.078Z,15.15
2019-06-10T13:58:30.019Z,15.23
2019-06-10T14:00:57.889Z,15.15
2019-06-10T14:03:26.174Z,15.15
2019-06-10T14:05:58.496Z,15.17
2019-06-10T14:08:24.782Z,15.18
2019-06-10T14:10:54.110Z,15.17
2019-06-10T14:13:23.811Z,15.15
2019-06-10T14:15:53.412Z,15.13
2019-06-10T14:18:23.197Z,15.10
2019-06-10T14:20:53.279Z,15.09
2019-06-10T14:23:22.152Z,15.07
2019-06-10T14:25:52.556Z,15.08
2019-06-10T14:28:38.549Z,15.07
2019-06-10T14:30:53.755Z,15.08
2019-06-10T14:33:23.261Z,15.15
2019-06-10T14:35:53.454Z,15.23
2019-06-10T14:38:22.228Z,15.30
2019-06-10T14:40:52.569Z,15.39
2019-06-10T14:43:23.331Z,15.48
2019-06-10T14:45:53.364Z,15.53
2019-06-10T14:48:23.325Z,15.59
2019-06-10T14:50:51.870Z,15.63
2019-06-10T14:53:19.450Z,15.71
2019-06-10T14:55:48.210Z,15.78
2019-06-10T14:58:19.270Z,15.78
2019-06-10T15:00:46.858Z,15.80
2019-06-10T15:03:19.003Z,15.72
2019-06-10T15:05:45.555Z,15.73
2019-06-10T15:08:17.134Z,15.71
2019-06-10T15:10:44.842Z,15.66
2019-06-10T15:13:13.885Z,15.64
2019-06-10T15:15:42.549Z,15.67
2019-06-10T15:18:11.450Z,15.75
2019-06-10T15:20:42.608Z,15.79
2019-06-10T15:23:11.535Z,15.86
2019-06-10T15:25:50.165Z,15.91
2019-06-10T15:28:12.832Z,15.93
2019-06-10T15:30:43.207Z,15.91
2019-06-10T15:33:14.905Z,15.85
2019-06-10T15:35:42.768Z,15.93
2019-06-10T15:38:14.858Z,15.93
2019-06-10T15:40:43.343Z,15.95
2019-06-10T15:43:12.084Z,15.91
2019-06-10T15:45:40.392Z,15.90
2019-06-10T15:48:10.166Z,15.96
2019-06-10T15:50:38.672Z,16.04
2019-06-10T15:53:06.573Z,16.11
2019-06-10T15:56:05.293Z,16.35
2019-06-10T15:58:05.079Z,16.43
2019-06-10T16:00:34.072Z,16.50
2019-06-10T16:03:03.012Z,16.44
2019-06-10T16:05:32.198Z,16.34
2019-06-10T16:08:02.165Z,16.26
2019-06-10T16:10:32.698Z,16.14
2019-06-10T16:13:03.241Z,16.21
2019-06-10T16:15:32.879Z,16.09
2019-06-10T16:18:02.805Z,16.06
2019-06-10T16:20:32.332Z,16.15
2019-06-10T16:23:02.721Z,16.11
2019-06-10T16:25:31.104Z,15.96
2019-06-10T16:28:02.570Z,15.89
2019-06-10T16:30:29.510Z,15.84
2019-06-10T16:32:57.175Z,15.82
2019-06-10T16:35:26.926Z,15.85
2019-06-10T16:37:56.806Z,15.74
2019-06-10T16:40:27.074Z,15.69
2019-06-10T16:42:55.900Z,15.71
2019-06-10T16:45:29.294Z,15.65
2019-06-10T16:47:54.449Z,15.57
2019-06-10T16:50:24.419Z,15.57
2019-06-10T16:52:53.644Z,15.61
2019-06-10T16:55:23.818Z,15.61
2019-06-10T16:57:59.298Z,15.60
2019-06-10T17:00:25.630Z,15.61
2019-06-10T17:02:53.454Z,15.72
2019-06-10T17:05:25.170Z,15.58
2019-06-10T17:07:52.575Z,15.64
2019-06-10T17:10:21.859Z,15.56
2019-06-10T17:12:59.777Z,15.52
2019-06-10T17:15:29.365Z,15.46
2019-06-10T17:17:57.914Z,15.49
2019-06-10T17:20:27.738Z,15.40
2019-06-10T17:22:56.073Z,15.43
2019-06-10T17:25:25.433Z,15.32
2019-06-10T17:27:54.217Z,15.18
2019-06-10T17:30:25.180Z,15.15
2019-06-10T17:32:53.403Z,15.11
2019-06-10T17:35:22.004Z,15.11
2019-06-10T17:37:52.326Z,15.06
2019-06-10T17:40:23.030Z,15.03
2019-06-10T17:42:53.240Z,15.00
2019-06-10T17:45:25.748Z,15.02
2019-06-10T17:47:52.533Z,15.12
2019-06-10T17:50:22.282Z,15.12
2019-06-10T17:52:53.415Z,15.12
2019-06-10T17:55:25.729Z,14.98
2019-06-10T17:57:52.126Z,15.13
2019-06-10T18:00:23.022Z,15.05
2019-06-10T18:02:53.563Z,15.10
2019-06-10T18:05:31.462Z,14.99
2019-06-10T18:08:02.173Z,15.01
2019-06-10T18:10:33.110Z,14.96
2019-06-10T18:13:13.153Z,14.92
2019-06-10T18:15:33.312Z,14.78
2019-06-10T18:18:03.312Z,14.79
2019-06-10T18:20:33.546Z,14.78
2019-06-10T18:23:02.762Z,14.82
2019-06-10T18:25:33.539Z,14.69
2019-06-10T18:28:02.792Z,14.64
2019-06-10T18:30:34.660Z,14.59
2019-06-10T18:33:02.944Z,14.58
2019-06-10T18:35:34.405Z,14.56
2019-06-10T18:38:02.337Z,14.56
2019-06-10T18:40:30.007Z,14.55
2019-06-10T18:42:58.617Z,14.56
2019-06-10T18:45:27.614Z,14.56
2019-06-10T18:47:56.520Z,14.56
2019-06-10T18:50:26.070Z,14.53
2019-06-10T18:52:56.781Z,14.55
2019-06-10T18:55:24.377Z,14.56
2019-06-10T18:57:53.436Z,14.53
2019-06-10T19:00:22.963Z,14.55
2019-06-10T19:03:08.369Z,14.53
2019-06-10T19:05:22.431Z,14.49
2019-06-10T19:07:52.759Z,14.51
2019-06-10T19:10:20.160Z,14.50
2019-06-10T19:12:48.943Z,14.48
2019-06-10T19:15:17.782Z,14.47
2019-06-10T19:17:46.375Z,14.47
2019-06-10T19:20:15.226Z,14.53
2019-06-10T19:22:43.827Z,14.55
2019-06-10T19:25:12.846Z,14.53
2019-06-10T19:27:44.327Z,14.49
2019-06-10T19:30:11.563Z,14.45
2019-06-10T19:32:42.917Z,14.44
2019-06-10T19:35:12.936Z,14.46
2019-06-10T19:37:42.348Z,14.53
2019-06-10T19:40:12.423Z,14.55
2019-06-10T19:42:40.483Z,14.51
2019-06-10T19:45:12.501Z,14.47
2019-06-10T19:47:43.372Z,14.45
2019-06-10T19:50:12.225Z,14.46
2019-06-10T19:52:43.694Z,14.40
2019-06-10T19:55:13.317Z,14.55
2019-06-10T19:57:41.669Z,14.54
2019-06-10T20:00:12.756Z,14.43
2019-06-10T20:02:44.048Z,14.38
2019-06-10T20:05:12.509Z,14.31
2019-06-10T20:07:43.962Z,14.26
2019-06-10T20:10:13.036Z,14.21
2019-06-10T20:12:44.819Z,14.17
2019-06-10T20:15:22.412Z,14.29
2019-06-10T20:17:52.543Z,14.18
2019-06-10T20:20:22.619Z,14.35
2019-06-10T20:22:53.400Z,14.46
2019-06-10T20:25:22.365Z,14.37
2019-06-10T20:27:52.343Z,14.29
2019-06-10T20:30:27.533Z,14.20
2019-06-10T20:32:52.828Z,14.14
2019-06-10T20:35:22.956Z,14.17
2019-06-10T20:37:53.834Z,14.26
2019-06-10T20:40:22.889Z,14.24
2019-06-10T20:42:51.953Z,14.17
2019-06-10T20:45:23.237Z,14.10
2019-06-10T20:47:53.287Z,14.06
2019-06-10T20:50:22.571Z,14.02
2019-06-10T20:52:52.447Z,14.04
2019-06-10T20:55:23.150Z,14.07
2019-06-10T20:58:02.378Z,13.98
2019-06-10T21:00:48.064Z,13.93
2019-06-10T21:03:11.505Z,13.89
2019-06-10T21:05:41.637Z,13.86
2019-06-10T21:08:09.477Z,13.84
2019-06-10T21:10:36.888Z,13.80
2019-06-10T21:13:07.392Z,13.84
2019-06-10T21:15:36.995Z,13.82
2019-06-10T21:18:05.288Z,13.74
2019-06-10T21:20:33.714Z,13.74
2019-06-10T21:23:03.188Z,13.73
2019-06-10T21:25:32.675Z,13.64
2019-06-10T21:28:03.313Z,13.60
2019-06-10T21:30:41.311Z,13.52
2019-06-10T21:33:03.846Z,13.50
2019-06-10T21:35:33.498Z,13.58
2019-06-10T21:38:03.407Z,13.66
2019-06-10T21:40:33.149Z,13.63
2019-06-10T21:43:03.267Z,13.66
2019-06-10T21:45:33.079Z,13.63
2019-06-10T21:48:02.290Z,13.54
2019-06-10T21:50:33.342Z,13.53
2019-06-10T21:53:03.097Z,13.47
2019-06-10T21:55:33.164Z,13.50
2019-06-10T21:58:03.698Z,13.50
2019-06-10T22:00:52.949Z,13.53
2019-06-10T22:03:12.803Z,13.53
2019-06-10T22:05:43.781Z,13.48
2019-06-10T22:08:12.630Z,13.45
2019-06-10T22:10:42.527Z,13.46
2019-06-10T22:13:12.379Z,13.46
2019-06-10T22:15:42.584Z,13.42
2019-06-10T22:18:12.562Z,13.35
2019-06-10T22:20:42.892Z,13.42
2019-06-10T22:23:12.803Z,13.41
2019-06-10T22:25:41.813Z,13.31
2019-06-10T22:28:12.922Z,13.35
2019-06-10T22:30:43.091Z,13.27
2019-06-10T22:33:12.348Z,13.24
2019-06-10T22:35:42.502Z,13.29
2019-06-10T22:38:13.052Z,13.26
2019-06-10T22:40:42.669Z,13.25
2019-06-10T22:43:12.989Z,13.18
2019-06-10T22:45:42.435Z,13.16
2019-06-10T22:48:12.125Z,13.14
2019-06-10T22:50:43.491Z,13.06
2019-06-10T22:53:12.644Z,13.07
2019-06-10T22:55:43.057Z,13.03
2019-06-10T22:58:14.219Z,12.94
2019-06-10T23:00:43.622Z,13.06
2019-06-10T23:03:13.096Z,13.06
2019-06-10T23:05:43.449Z,12.98
2019-06-10T23:08:12.645Z,13.04
2019-06-10T23:10:42.896Z,13.07
2019-06-10T23:13:13.387Z,13.05
2019-06-10T23:15:42.854Z,13.10
2019-06-10T23:18:12.704Z,13.10
2019-06-10T23:20:42.782Z,13.04
2019-06-10T23:23:12.691Z,13.02
2019-06-10T23:25:42.940Z,13.01
2019-06-10T23:28:12.974Z,13.03
2019-06-10T23:30:42.602Z,12.94
2019-06-10T23:33:12.417Z,12.96
2019-06-10T23:35:42.916Z,12.91
2019-06-10T23:38:13.223Z,12.85
2019-06-10T23:40:42.934Z,12.84
2019-06-10T23:43:13.108Z,12.75
2019-06-10T23:45:42.182Z,12.75
2019-06-10T23:48:13.186Z,12.76
2019-06-10T23:50:40.590Z,12.77
2019-06-10T23:53:09.300Z,12.76
2019-06-10T23:55:38.018Z,12.77
2019-06-10T23:58:06.671Z,12.76
